Firmino Alves, Brazil
Current Conditions -  °F | °C
As of 3:00 PM on Monday 20 Oct 2014 (Local Time) from SBIL Reporting Station
Scattered Clouds Scattered Clouds  
Wind Chill: 82°   Ceiling: Unl
Heat Index: 87°   Visibility: 6mi
Dew Point: 72°   Wind: 9mph
Humidity: 70%   Direction: 50°NE
Pressure: 29.85"   Gusts: NA
Location:  14.99°S, 39.94°W
Report Text: SBIL 201800Z 05008KT 9999 SCT025 28/22 Q1011
Loading
Personal Weather Stations






























Interactive Weather Map
Tropical Storm Tracking
New forecast layout! Learn more

10-Day Weather Forecast

Advertisements
Track Severe Weather on mobile